createdAt,value
2022-09-15T00:02:46.934Z,20.43
2022-09-15T00:05:50.711Z,20.40
2022-09-15T00:08:54.537Z,20.40
2022-09-15T00:11:57.604Z,20.43
2022-09-15T00:15:00.967Z,20.42
2022-09-15T00:18:05.111Z,20.35
2022-09-15T00:21:10.202Z,20.39
2022-09-15T00:24:13.438Z,20.37
2022-09-15T00:27:16.828Z,20.26
2022-09-15T00:30:19.897Z,20.28
2022-09-15T00:33:23.194Z,20.24
2022-09-15T00:36:26.984Z,20.28
2022-09-15T00:39:29.755Z,20.32
2022-09-15T00:42:32.963Z,20.32
2022-09-15T00:45:37.242Z,20.30
2022-09-15T00:48:49.434Z,20.28
2022-09-15T00:52:07.396Z,20.29
2022-09-15T00:55:35.932Z,20.25
2022-09-15T00:58:44.100Z,20.22
2022-09-15T01:01:49.979Z,20.22
2022-09-15T01:04:58.216Z,20.18
2022-09-15T01:08:13.499Z,20.21
2022-09-15T01:11:17.067Z,20.17
2022-09-15T01:14:20.228Z,20.20
2022-09-15T01:17:34.518Z,20.19
2022-09-15T01:21:02.651Z,20.19
2022-09-15T01:24:33.560Z,20.19
2022-09-15T01:28:13.933Z,20.21
2022-09-15T01:31:24.666Z,20.17
2022-09-15T01:34:33.922Z,20.15
2022-09-15T01:37:44.803Z,20.13
2022-09-15T01:41:18.269Z,20.12
2022-09-15T01:44:44.276Z,20.10
2022-09-15T01:47:48.623Z,20.08
2022-09-15T01:50:56.488Z,20.07
2022-09-15T01:54:01.345Z,20.06
2022-09-15T01:57:04.158Z,20.03
2022-09-15T02:00:07.837Z,20.04
2022-09-15T02:03:40.741Z,19.81
2022-09-15T02:06:55.586Z,19.92
2022-09-15T02:10:03.819Z,19.94
2022-09-15T02:13:17.970Z,19.94
2022-09-15T02:16:23.821Z,19.91
2022-09-15T02:19:31.700Z,19.91
2022-09-15T02:22:38.041Z,19.87
2022-09-15T02:25:51.635Z,19.90
2022-09-15T02:28:55.783Z,20.03
2022-09-15T02:32:03.775Z,19.97
2022-09-15T02:35:10.047Z,20.08
2022-09-15T02:38:13.077Z,20.10
2022-09-15T02:41:16.201Z,20.07
2022-09-15T02:44:19.627Z,20.08
2022-09-15T02:47:23.569Z,19.97
2022-09-15T02:50:28.725Z,19.97
2022-09-15T02:53:31.675Z,19.96
2022-09-15T02:56:34.505Z,20.10
2022-09-15T02:59:56.112Z,20.08
2022-09-15T03:02:59.040Z,20.01
2022-09-15T03:06:17.188Z,19.99
2022-09-15T03:09:19.879Z,20.01
2022-09-15T03:12:22.896Z,20.03
2022-09-15T03:15:26.685Z,20.08
2022-09-15T03:18:30.673Z,20.11
2022-09-15T03:21:33.537Z,19.97
2022-09-15T03:24:37.632Z,19.96
2022-09-15T03:27:40.790Z,20.09
2022-09-15T03:30:44.270Z,20.06
2022-09-15T03:33:47.619Z,20.14
2022-09-15T03:36:50.808Z,20.05
2022-09-15T03:39:53.979Z,20.16
2022-09-15T03:42:57.195Z,20.14
2022-09-15T03:46:02.720Z,20.10
2022-09-15T03:49:06.083Z,20.11
2022-09-15T03:52:09.000Z,20.07
2022-09-15T03:55:12.108Z,20.04
2022-09-15T03:58:16.198Z,20.01
2022-09-15T04:01:20.927Z,20.01
2022-09-15T04:04:24.249Z,20.02
2022-09-15T04:07:27.296Z,20.00
2022-09-15T04:10:31.193Z,20.01
2022-09-15T04:13:34.734Z,19.98
2022-09-15T04:16:37.809Z,20.00
2022-09-15T04:19:41.600Z,20.00
2022-09-15T04:22:45.178Z,19.98
2022-09-15T04:25:58.692Z,19.94
2022-09-15T04:29:04.771Z,19.96
2022-09-15T04:32:08.375Z,19.94
2022-09-15T04:35:12.154Z,19.85
2022-09-15T04:38:15.304Z,19.83
2022-09-15T04:41:19.401Z,19.85
2022-09-15T04:44:22.171Z,19.77
2022-09-15T04:47:26.000Z,19.84
2022-09-15T04:50:28.821Z,19.86
2022-09-15T04:53:37.756Z,19.89
2022-09-15T04:56:40.924Z,19.89
2022-09-15T04:59:43.868Z,19.90
2022-09-15T05:02:46.609Z,19.90
2022-09-15T05:05:49.794Z,19.91
2022-09-15T05:08:54.637Z,19.98
2022-09-15T05:11:58.166Z,20.05
2022-09-15T05:15:00.949Z,20.09
2022-09-15T05:18:05.875Z,20.12
2022-09-15T05:21:10.631Z,20.19
2022-09-15T05:24:13.941Z,20.28
2022-09-15T05:27:16.976Z,20.24
2022-09-15T05:33:42.745Z,20.34
2022-09-15T05:36:45.794Z,20.44
2022-09-15T05:39:48.617Z,20.42
2022-09-15T05:42:51.853Z,20.45
2022-09-15T05:45:55.069Z,20.49
2022-09-15T05:48:58.657Z,20.48
2022-09-15T05:52:01.509Z,20.53
2022-09-15T05:55:05.130Z,20.56
2022-09-15T05:58:08.179Z,20.58
2022-09-15T06:01:33.566Z,20.65
2022-09-15T06:04:36.817Z,20.71
2022-09-15T06:07:39.767Z,20.73
2022-09-15T06:10:43.221Z,20.77
2022-09-15T06:13:46.717Z,20.81
2022-09-15T06:16:49.851Z,20.87
2022-09-15T06:19:52.754Z,20.92
2022-09-15T06:22:56.621Z,21.01
2022-09-15T06:26:11.515Z,21.04
2022-09-15T06:29:15.003Z,21.05
2022-09-15T06:32:37.698Z,21.12
2022-09-15T06:35:41.527Z,21.18
2022-09-15T06:38:44.836Z,21.20
2022-09-15T06:42:01.737Z,21.24
2022-09-15T06:45:05.855Z,21.33
2022-09-15T06:48:23.891Z,21.37
2022-09-15T06:51:31.381Z,21.46
2022-09-15T06:54:34.768Z,21.47
2022-09-15T06:57:37.408Z,21.52
2022-09-15T07:00:40.436Z,21.60
2022-09-15T07:03:44.130Z,21.59
2022-09-15T07:06:46.995Z,21.68
2022-09-15T07:09:50.093Z,21.71
2022-09-15T07:12:53.139Z,21.80
2022-09-15T07:16:01.337Z,21.87
2022-09-15T07:19:05.909Z,21.91
2022-09-15T07:22:08.893Z,22.02
2022-09-15T07:25:12.011Z,22.10
2022-09-15T07:28:15.363Z,22.20
2022-09-15T07:31:21.095Z,22.15
2022-09-15T07:34:23.851Z,22.18
2022-09-15T07:37:26.995Z,22.24
2022-09-15T07:40:29.870Z,22.38
2022-09-15T07:43:33.595Z,22.32
2022-09-15T07:46:36.495Z,22.51
2022-09-15T07:49:45.752Z,22.62
2022-09-15T07:52:48.801Z,22.79
2022-09-15T07:59:43.607Z,23.13
2022-09-15T08:02:46.617Z,23.15
2022-09-15T08:05:50.004Z,23.26
2022-09-15T08:08:59.321Z,23.27
2022-09-15T08:12:04.415Z,23.32
2022-09-15T08:15:07.370Z,23.44
2022-09-15T08:18:10.568Z,23.46
2022-09-15T08:21:17.076Z,23.54
2022-09-15T08:24:22.749Z,23.59
2022-09-15T08:27:25.610Z,23.58
2022-09-15T08:30:29.022Z,23.81
2022-09-15T08:33:32.720Z,23.93
2022-09-15T08:36:36.042Z,23.98
2022-09-15T08:39:38.890Z,24.15
2022-09-15T08:42:45.039Z,24.36
2022-09-15T08:46:07.849Z,24.52
2022-09-15T08:49:30.518Z,24.65
2022-09-15T08:52:46.390Z,24.86
2022-09-15T08:55:53.242Z,24.94
2022-09-15T08:58:56.099Z,25.10
2022-09-15T09:02:23.779Z,25.16
2022-09-15T09:05:45.678Z,25.45
2022-09-15T09:09:01.346Z,25.73
2022-09-15T09:12:26.469Z,25.84
2022-09-15T09:15:39.795Z,25.80
2022-09-15T09:18:46.920Z,26.10
2022-09-15T09:22:00.135Z,26.26
2022-09-15T09:25:16.233Z,26.41
2022-09-15T09:28:50.166Z,26.53
2022-09-15T09:31:53.499Z,26.65
2022-09-15T09:35:28.988Z,26.76
2022-09-15T09:38:35.974Z,26.82
2022-09-15T09:41:38.939Z,26.98
2022-09-15T09:44:42.028Z,26.92
2022-09-15T09:47:46.467Z,26.96
2022-09-15T09:50:50.788Z,27.15
2022-09-15T09:53:54.240Z,27.44
2022-09-15T09:57:17.017Z,27.38
2022-09-15T10:00:39.092Z,27.45
2022-09-15T10:03:43.895Z,27.59
2022-09-15T10:06:46.961Z,27.59
2022-09-15T10:09:55.670Z,27.70
2022-09-15T10:12:59.854Z,27.57
2022-09-15T10:16:05.676Z,27.62
2022-09-15T10:19:13.174Z,27.52
2022-09-15T10:22:29.064Z,27.59
2022-09-15T10:25:57.513Z,27.25
2022-09-15T10:29:19.076Z,27.22
2022-09-15T10:32:30.253Z,27.18
2022-09-15T10:35:33.533Z,27.13
2022-09-15T10:38:46.978Z,27.12
2022-09-15T10:42:04.557Z,27.17
2022-09-15T10:45:13.338Z,27.00
2022-09-15T10:49:01.075Z,27.12
2022-09-15T10:52:13.151Z,27.25
2022-09-15T10:55:51.663Z,27.16
2022-09-15T10:59:05.414Z,27.28
2022-09-15T11:03:02.894Z,27.30
2022-09-15T11:06:27.001Z,27.37
2022-09-15T11:09:35.210Z,27.40
2022-09-15T11:12:48.722Z,27.47
2022-09-15T11:16:20.137Z,27.28
2022-09-15T11:19:43.810Z,27.26
2022-09-15T11:22:53.107Z,27.38
2022-09-15T11:26:04.607Z,27.30
2022-09-15T11:29:21.814Z,27.30
2022-09-15T11:32:28.304Z,27.24
2022-09-15T11:35:47.903Z,27.13
2022-09-15T11:38:53.652Z,27.20
2022-09-15T11:42:04.821Z,27.11
2022-09-15T11:45:16.064Z,26.99
2022-09-15T11:48:25.541Z,26.97
2022-09-15T11:51:29.401Z,26.79
2022-09-15T11:54:43.056Z,26.82
2022-09-15T11:58:22.159Z,26.80
2022-09-15T12:01:31.153Z,26.83
2022-09-15T12:05:05.379Z,26.71
2022-09-15T12:08:18.972Z,26.77
2022-09-15T12:11:24.990Z,26.66
2022-09-15T12:14:47.514Z,26.76
2022-09-15T12:17:50.781Z,26.74
2022-09-15T12:21:00.175Z,26.73
2022-09-15T12:24:40.314Z,26.66
2022-09-15T12:27:43.426Z,26.63
2022-09-15T12:30:46.374Z,26.67
2022-09-15T12:33:51.776Z,26.58
2022-09-15T12:37:07.882Z,26.61
2022-09-15T12:40:41.832Z,26.53
2022-09-15T12:44:24.801Z,26.47
2022-09-15T12:47:40.463Z,26.19
2022-09-15T12:50:44.862Z,26.12
2022-09-15T12:53:52.973Z,26.04
2022-09-15T12:56:56.608Z,26.09
2022-09-15T13:00:21.076Z,26.11
2022-09-15T13:07:15.476Z,25.85
2022-09-15T13:10:31.187Z,25.73
2022-09-15T13:13:39.461Z,25.72
2022-09-15T13:16:44.117Z,25.57
2022-09-15T13:19:48.409Z,25.62
2022-09-15T13:22:53.277Z,25.11
2022-09-15T13:25:58.093Z,24.28
2022-09-15T13:29:02.416Z,23.55
2022-09-15T13:32:21.597Z,23.37
2022-09-15T13:35:25.012Z,23.51
2022-09-15T13:38:39.945Z,23.65
2022-09-15T13:42:04.787Z,23.44
2022-09-15T13:45:29.462Z,23.28
2022-09-15T13:48:41.559Z,23.23
2022-09-15T13:51:46.406Z,23.01
2022-09-15T13:55:21.606Z,22.96
2022-09-15T14:01:48.856Z,22.56
2022-09-15T14:04:52.048Z,22.47
2022-09-15T14:08:01.664Z,22.35
2022-09-15T14:11:08.615Z,22.31
2022-09-15T14:14:29.363Z,22.00
2022-09-15T14:17:34.214Z,22.21
2022-09-15T14:20:37.812Z,22.14
2022-09-15T14:23:48.860Z,22.13
2022-09-15T14:26:51.519Z,22.00
2022-09-15T14:29:57.726Z,22.02
2022-09-15T14:33:01.389Z,22.12
2022-09-15T14:36:15.366Z,22.11
2022-09-15T14:39:19.775Z,22.16
2022-09-15T14:42:31.123Z,22.13
2022-09-15T14:46:02.363Z,22.16
2022-09-15T14:49:09.791Z,22.04
2022-09-15T14:52:25.971Z,22.02
2022-09-15T14:55:37.615Z,21.99
2022-09-15T14:59:01.114Z,21.78
2022-09-15T15:02:21.202Z,21.77
2022-09-15T15:05:30.338Z,21.74
2022-09-15T15:08:41.723Z,21.70
2022-09-15T15:11:44.507Z,21.59
2022-09-15T15:14:47.413Z,21.37
2022-09-15T15:17:52.685Z,21.26
2022-09-15T15:20:55.599Z,21.11
2022-09-15T15:23:58.235Z,21.15
2022-09-15T15:27:32.671Z,21.04
2022-09-15T15:30:46.636Z,21.04
2022-09-15T15:33:53.188Z,21.08
2022-09-15T15:37:03.003Z,21.11
2022-09-15T15:40:12.748Z,21.13
2022-09-15T15:43:26.333Z,21.12
2022-09-15T15:46:54.492Z,21.16
2022-09-15T15:50:18.832Z,21.09
2022-09-15T15:53:22.480Z,21.01
2022-09-15T15:56:25.611Z,20.93
2022-09-15T15:59:28.315Z,20.96
2022-09-15T16:02:31.076Z,20.98
2022-09-15T16:05:37.644Z,20.99
2022-09-15T16:08:43.235Z,20.99
2022-09-15T16:11:46.072Z,21.02
2022-09-15T16:14:48.638Z,21.00
2022-09-15T16:17:51.392Z,21.01
2022-09-15T16:20:54.266Z,21.04
2022-09-15T16:23:57.012Z,20.99
2022-09-15T16:26:59.584Z,21.00
2022-09-15T16:30:03.717Z,20.99
2022-09-15T16:33:06.596Z,20.96
2022-09-15T16:36:13.934Z,20.93
2022-09-15T16:39:16.476Z,20.95
2022-09-15T16:42:19.228Z,20.96
2022-09-15T16:45:26.319Z,20.91
2022-09-15T16:48:29.050Z,20.88
2022-09-15T16:51:31.928Z,20.85
2022-09-15T16:54:34.884Z,20.84
2022-09-15T16:57:37.352Z,20.81
2022-09-15T17:00:40.456Z,20.76
2022-09-15T17:03:43.394Z,20.72
2022-09-15T17:06:46.316Z,20.71
2022-09-15T17:09:49.899Z,20.67
2022-09-15T17:12:53.507Z,20.65
2022-09-15T17:15:56.350Z,20.63
2022-09-15T17:18:59.169Z,20.61
2022-09-15T17:22:01.863Z,20.54
2022-09-15T17:25:34.967Z,20.50
2022-09-15T17:28:37.861Z,20.48
2022-09-15T17:31:41.282Z,20.44
2022-09-15T17:34:43.839Z,20.42
2022-09-15T17:37:46.737Z,20.32
2022-09-15T17:40:52.587Z,20.33
2022-09-15T17:43:55.445Z,20.29
2022-09-15T17:46:58.641Z,20.31
2022-09-15T17:50:01.373Z,20.27
2022-09-15T17:53:17.445Z,20.24
2022-09-15T17:56:20.268Z,20.22
2022-09-15T17:59:22.844Z,20.16
2022-09-15T18:02:25.770Z,20.09
2022-09-15T18:05:32.100Z,20.03
2022-09-15T18:08:38.418Z,20.02
2022-09-15T18:11:41.419Z,19.99
2022-09-15T18:14:43.890Z,19.92
2022-09-15T18:17:48.209Z,19.86
2022-09-15T18:20:53.140Z,19.83
2022-09-15T18:23:56.108Z,19.79
2022-09-15T18:26:58.654Z,19.76
2022-09-15T18:30:01.605Z,19.72
2022-09-15T18:33:04.209Z,19.72
2022-09-15T18:36:07.917Z,19.70
2022-09-15T18:39:11.960Z,19.70
2022-09-15T18:42:14.751Z,19.67
2022-09-15T18:45:18.271Z,19.66
2022-09-15T18:48:21.252Z,19.65
2022-09-15T18:51:29.284Z,19.61
2022-09-15T18:54:46.740Z,19.58
2022-09-15T18:57:50.871Z,19.60
2022-09-15T19:00:59.562Z,19.58
2022-09-15T19:04:02.793Z,19.55
2022-09-15T19:07:05.683Z,19.50
2022-09-15T19:10:10.856Z,19.51
2022-09-15T19:13:15.570Z,19.50
2022-09-15T19:16:20.192Z,19.45
2022-09-15T19:19:25.873Z,19.48
2022-09-15T19:22:28.775Z,19.44
2022-09-15T19:25:31.794Z,19.42
2022-09-15T19:28:34.517Z,19.37
2022-09-15T19:31:41.804Z,19.38
2022-09-15T19:34:48.206Z,19.38
2022-09-15T19:37:51.085Z,19.35
2022-09-15T19:40:53.696Z,19.35
2022-09-15T19:43:56.721Z,19.32
2022-09-15T19:46:59.642Z,19.30
2022-09-15T19:50:03.242Z,19.36
2022-09-15T19:53:05.814Z,19.35
2022-09-15T19:56:13.931Z,19.28
2022-09-15T19:59:17.271Z,19.27
2022-09-15T20:02:20.193Z,19.26
2022-09-15T20:05:23.074Z,19.23
2022-09-15T20:08:26.863Z,19.19
2022-09-15T20:11:30.211Z,19.12
2022-09-15T20:14:32.679Z,19.11
2022-09-15T20:17:35.823Z,19.09
2022-09-15T20:20:39.682Z,19.06
2022-09-15T20:23:44.090Z,19.05
2022-09-15T20:26:47.483Z,19.06
2022-09-15T20:29:50.323Z,19.04
2022-09-15T20:32:52.876Z,19.05
2022-09-15T20:35:55.726Z,19.06
2022-09-15T20:39:00.246Z,19.05
2022-09-15T20:42:03.096Z,19.00
2022-09-15T20:45:06.549Z,18.92
2022-09-15T20:48:09.352Z,18.94
2022-09-15T20:51:16.858Z,18.92
2022-09-15T20:54:19.634Z,18.88
2022-09-15T20:57:22.328Z,18.88
2022-09-15T21:00:26.602Z,18.88
2022-09-15T21:03:30.555Z,18.87
2022-09-15T21:06:34.039Z,18.86
2022-09-15T21:09:36.546Z,18.77
2022-09-15T21:12:39.297Z,18.84
2022-09-15T21:15:41.819Z,18.80
2022-09-15T21:18:45.402Z,18.87
2022-09-15T21:21:47.992Z,18.82
2022-09-15T21:24:50.848Z,18.84
2022-09-15T21:27:53.320Z,18.73
2022-09-15T21:31:08.109Z,18.69
2022-09-15T21:34:13.259Z,18.62
2022-09-15T21:37:16.041Z,18.58
2022-09-15T21:40:18.729Z,18.71
2022-09-15T21:43:21.674Z,18.79
2022-09-15T21:46:28.724Z,18.79
2022-09-15T21:49:31.442Z,18.72
2022-09-15T21:52:33.967Z,18.57
2022-09-15T21:55:37.596Z,18.58
2022-09-15T21:58:43.005Z,18.70
2022-09-15T22:01:45.889Z,18.69
2022-09-15T22:04:48.650Z,18.61
2022-09-15T22:07:51.109Z,18.74
2022-09-15T22:10:58.820Z,18.69
2022-09-15T22:14:03.082Z,18.53
2022-09-15T22:17:06.008Z,18.48
2022-09-15T22:20:12.180Z,18.57
2022-09-15T22:23:14.953Z,18.57
2022-09-15T22:26:23.689Z,18.47
2022-09-15T22:29:26.581Z,18.49
2022-09-15T22:32:30.361Z,18.55
2022-09-15T22:35:33.311Z,18.48
2022-09-15T22:38:36.403Z,18.47
2022-09-15T22:41:39.697Z,18.55
2022-09-15T22:44:42.473Z,18.49
2022-09-15T22:47:45.358Z,18.34
2022-09-15T22:50:47.879Z,18.32
2022-09-15T22:53:54.609Z,18.33
2022-09-15T22:56:57.271Z,18.26
2022-09-15T23:00:00.087Z,18.17
2022-09-15T23:03:02.642Z,18.18
2022-09-15T23:06:06.202Z,18.17
2022-09-15T23:09:10.820Z,18.19
2022-09-15T23:12:13.885Z,18.13
2022-09-15T23:15:16.548Z,18.19
2022-09-15T23:18:19.461Z,18.18
2022-09-15T23:21:22.221Z,18.22
2022-09-15T23:24:25.952Z,18.13
2022-09-15T23:27:28.394Z,18.12
2022-09-15T23:30:31.254Z,18.02
2022-09-15T23:33:34.369Z,18.06
2022-09-15T23:36:37.588Z,18.01
2022-09-15T23:39:40.458Z,18.01
2022-09-15T23:42:44.442Z,18.11
2022-09-15T23:45:47.121Z,18.08
2022-09-15T23:48:49.910Z,18.10
2022-09-15T23:51:52.676Z,17.98
2022-09-15T23:54:55.463Z,17.84
2022-09-15T23:57:58.228Z,18.00
